sensor_id;sensor_type;location;lat;lon;timestamp;temperature;humidity
4314;DHT22;2170;48.794;9.182;2023-08-08T00:00:47;14.40;99.90
4314;DHT22;2170;48.794;9.182;2023-08-08T00:03:31;14.40;99.90
4314;DHT22;2170;48.794;9.182;2023-08-08T00:06:08;14.30;99.90
4314;DHT22;2170;48.794;9.182;2023-08-08T00:08:44;14.40;99.90
4314;DHT22;2170;48.794;9.182;2023-08-08T00:11:30;14.40;99.90
4314;DHT22;2170;48.794;9.182;2023-08-08T00:14:10;14.40;99.90
4314;DHT22;2170;48.794;9.182;2023-08-08T00:16:43;14.50;99.90
4314;DHT22;2170;48.794;9.182;2023-08-08T00:19:16;14.50;99.90
4314;DHT22;2170;48.794;9.182;2023-08-08T00:22:01;14.40;99.90
4314;DHT22;2170;48.794;9.182;2023-08-08T00:24:43;14.50;99.90
4314;DHT22;2170;48.794;9.182;2023-08-08T00:27:14;14.50;99.90
4314;DHT22;2170;48.794;9.182;2023-08-08T00:29:55;14.60;99.90
4314;DHT22;2170;48.794;9.182;2023-08-08T00:32:26;14.60;99.90
4314;DHT22;2170;48.794;9.182;2023-08-08T00:34:54;14.60;99.90
4314;DHT22;2170;48.794;9.182;2023-08-08T00:37:26;14.60;99.90
4314;DHT22;2170;48.794;9.182;2023-08-08T00:40:00;14.60;99.90
4314;DHT22;2170;48.794;9.182;2023-08-08T00:42:30;14.60;99.90
4314;DHT22;2170;48.794;9.182;2023-08-08T00:45:10;14.60;99.90
4314;DHT22;2170;48.794;9.182;2023-08-08T00:47:43;14.70;99.90
4314;DHT22;2170;48.794;9.182;2023-08-08T00:50:22;14.70;99.90
4314;DHT22;2170;48.794;9.182;2023-08-08T00:52:51;14.70;99.90
4314;DHT22;2170;48.794;9.182;2023-08-08T00:55:33;14.70;99.90
4314;DHT22;2170;48.794;9.182;2023-08-08T00:58:07;14.80;99.90
4314;DHT22;2170;48.794;9.182;2023-08-08T01:00:38;14.70;99.90
4314;DHT22;2170;48.794;9.182;2023-08-08T01:03:11;14.70;99.90
4314;DHT22;2170;48.794;9.182;2023-08-08T01:05:50;14.70;99.90
4314;DHT22;2170;48.794;9.182;2023-08-08T01:08:23;14.80;99.90
4314;DHT22;2170;48.794;9.182;2023-08-08T01:10:56;14.70;99.90
4314;DHT22;2170;48.794;9.182;2023-08-08T01:13:31;14.80;99.90
4314;DHT22;2170;48.794;9.182;2023-08-08T01:16:00;14.80;99.90
4314;DHT22;2170;48.794;9.182;2023-08-08T01:18:29;14.80;99.90
4314;DHT22;2170;48.794;9.182;2023-08-08T01:21:04;14.80;99.90
4314;DHT22;2170;48.794;9.182;2023-08-08T01:23:45;14.80;99.90
4314;DHT22;2170;48.794;9.182;2023-08-08T01:26:23;14.80;99.90
4314;DHT22;2170;48.794;9.182;2023-08-08T01:29:03;14.80;99.90
4314;DHT22;2170;48.794;9.182;2023-08-08T01:31:33;14.80;99.90
4314;DHT22;2170;48.794;9.182;2023-08-08T01:34:17;14.80;99.90
4314;DHT22;2170;48.794;9.182;2023-08-08T01:36:55;14.80;99.90
4314;DHT22;2170;48.794;9.182;2023-08-08T01:39:27;14.80;99.90
4314;DHT22;2170;48.794;9.182;2023-08-08T01:42:03;14.80;99.90
4314;DHT22;2170;48.794;9.182;2023-08-08T01:44:44;14.80;99.90
4314;DHT22;2170;48.794;9.182;2023-08-08T01:47:15;14.90;99.90
4314;DHT22;2170;48.794;9.182;2023-08-08T01:49:49;14.70;99.90
4314;DHT22;2170;48.794;9.182;2023-08-08T01:52:23;14.90;99.90
4314;DHT22;2170;48.794;9.182;2023-08-08T01:54:51;14.90;99.90
4314;DHT22;2170;48.794;9.182;2023-08-08T01:57:29;15.10;99.90
4314;DHT22;2170;48.794;9.182;2023-08-08T02:03:30;15.00;99.90
4314;DHT22;2170;48.794;9.182;2023-08-08T02:06:16;15.00;99.90
4314;DHT22;2170;48.794;9.182;2023-08-08T02:08:56;15.00;99.90
4314;DHT22;2170;48.794;9.182;2023-08-08T02:11:32;15.00;99.90
4314;DHT22;2170;48.794;9.182;2023-08-08T02:14:23;15.00;99.90
4314;DHT22;2170;48.794;9.182;2023-08-08T02:17:08;14.80;99.90
4314;DHT22;2170;48.794;9.182;2023-08-08T02:19:39;15.00;99.90
4314;DHT22;2170;48.794;9.182;2023-08-08T02:25:20;15.00;99.90
4314;DHT22;2170;48.794;9.182;2023-08-08T02:28:16;15.00;99.90
4314;DHT22;2170;48.794;9.182;2023-08-08T02:30:54;15.00;99.90
4314;DHT22;2170;48.794;9.182;2023-08-08T02:33:23;14.90;99.90
4314;DHT22;2170;48.794;9.182;2023-08-08T02:35:58;14.90;99.90
4314;DHT22;2170;48.794;9.182;2023-08-08T02:38:43;14.90;99.90
4314;DHT22;2170;48.794;9.182;2023-08-08T02:41:36;14.80;99.90
4314;DHT22;2170;48.794;9.182;2023-08-08T02:44:14;14.80;99.90
4314;DHT22;2170;48.794;9.182;2023-08-08T02:47:15;14.70;99.90
4314;DHT22;2170;48.794;9.182;2023-08-08T02:49:58;14.70;99.90
4314;DHT22;2170;48.794;9.182;2023-08-08T02:52:36;14.70;99.90
4314;DHT22;2170;48.794;9.182;2023-08-08T02:55:16;14.60;99.90
4314;DHT22;2170;48.794;9.182;2023-08-08T02:58:04;14.60;99.90
4314;DHT22;2170;48.794;9.182;2023-08-08T03:01:08;14.60;99.90
4314;DHT22;2170;48.794;9.182;2023-08-08T03:03:48;14.40;99.90
4314;DHT22;2170;48.794;9.182;2023-08-08T03:06:30;14.60;99.90
4314;DHT22;2170;48.794;9.182;2023-08-08T03:09:01;14.50;99.90
4314;DHT22;2170;48.794;9.182;2023-08-08T03:11:44;14.50;99.90
4314;DHT22;2170;48.794;9.182;2023-08-08T03:14:26;14.50;99.90
4314;DHT22;2170;48.794;9.182;2023-08-08T03:17:00;14.50;99.90
4314;DHT22;2170;48.794;9.182;2023-08-08T03:19:37;14.50;99.90
4314;DHT22;2170;48.794;9.182;2023-08-08T03:22:15;14.50;99.90
4314;DHT22;2170;48.794;9.182;2023-08-08T03:24:49;14.40;99.90
4314;DHT22;2170;48.794;9.182;2023-08-08T03:27:29;14.40;99.90
4314;DHT22;2170;48.794;9.182;2023-08-08T03:30:07;14.40;99.90
4314;DHT22;2170;48.794;9.182;2023-08-08T03:32:55;14.40;99.90
4314;DHT22;2170;48.794;9.182;2023-08-08T03:35:42;14.40;99.90
4314;DHT22;2170;48.794;9.182;2023-08-08T03:38:53;14.40;99.90
4314;DHT22;2170;48.794;9.182;2023-08-08T03:41:36;14.40;99.90
4314;DHT22;2170;48.794;9.182;2023-08-08T03:44:18;14.40;99.90
4314;DHT22;2170;48.794;9.182;2023-08-08T03:47:02;14.40;99.90
4314;DHT22;2170;48.794;9.182;2023-08-08T03:49:46;14.40;99.90
4314;DHT22;2170;48.794;9.182;2023-08-08T03:52:26;14.40;99.90
4314;DHT22;2170;48.794;9.182;2023-08-08T03:55:14;14.50;99.90
4314;DHT22;2170;48.794;9.182;2023-08-08T03:57:52;14.40;99.90
4314;DHT22;2170;48.794;9.182;2023-08-08T04:00:45;14.50;99.90
4314;DHT22;2170;48.794;9.182;2023-08-08T04:03:31;14.50;99.90
4314;DHT22;2170;48.794;9.182;2023-08-08T04:06:07;14.50;99.90
4314;DHT22;2170;48.794;9.182;2023-08-08T04:08:44;14.50;99.90
4314;DHT22;2170;48.794;9.182;2023-08-08T04:11:27;14.50;99.90
4314;DHT22;2170;48.794;9.182;2023-08-08T04:14:02;14.50;99.90
4314;DHT22;2170;48.794;9.182;2023-08-08T04:16:34;14.60;99.90
4314;DHT22;2170;48.794;9.182;2023-08-08T04:19:05;14.60;99.90
4314;DHT22;2170;48.794;9.182;2023-08-08T04:21:47;14.60;99.90
4314;DHT22;2170;48.794;9.182;2023-08-08T04:24:38;14.60;99.90
4314;DHT22;2170;48.794;9.182;2023-08-08T04:27:28;14.60;99.90
4314;DHT22;2170;48.794;9.182;2023-08-08T04:30:14;14.60;99.90
4314;DHT22;2170;48.794;9.182;2023-08-08T04:33:13;14.60;99.90
4314;DHT22;2170;48.794;9.182;2023-08-08T04:35:48;14.60;99.90
4314;DHT22;2170;48.794;9.182;2023-08-08T04:38:26;14.60;99.90
4314;DHT22;2170;48.794;9.182;2023-08-08T04:41:01;14.70;99.90
4314;DHT22;2170;48.794;9.182;2023-08-08T04:43:32;14.70;99.90
4314;DHT22;2170;48.794;9.182;2023-08-08T04:46:02;14.50;99.90
4314;DHT22;2170;48.794;9.182;2023-08-08T04:48:36;14.70;99.90
4314;DHT22;2170;48.794;9.182;2023-08-08T04:51:08;14.80;99.90
4314;DHT22;2170;48.794;9.182;2023-08-08T04:53:40;14.60;99.90
4314;DHT22;2170;48.794;9.182;2023-08-08T04:56:19;14.80;99.90
4314;DHT22;2170;48.794;9.182;2023-08-08T04:59:07;14.80;99.90
4314;DHT22;2170;48.794;9.182;2023-08-08T05:04:55;14.80;99.90
4314;DHT22;2170;48.794;9.182;2023-08-08T05:07:38;14.80;99.90
4314;DHT22;2170;48.794;9.182;2023-08-08T05:10:27;14.80;99.90
4314;DHT22;2170;48.794;9.182;2023-08-08T05:13:08;14.90;99.90
4314;DHT22;2170;48.794;9.182;2023-08-08T05:15:43;14.80;99.90
4314;DHT22;2170;48.794;9.182;2023-08-08T05:18:24;14.90;99.90
4314;DHT22;2170;48.794;9.182;2023-08-08T05:20:59;14.90;99.90
4314;DHT22;2170;48.794;9.182;2023-08-08T05:23:43;14.90;99.90
4314;DHT22;2170;48.794;9.182;2023-08-08T05:26:19;15.10;99.90
4314;DHT22;2170;48.794;9.182;2023-08-08T05:28:55;15.10;99.90
4314;DHT22;2170;48.794;9.182;2023-08-08T05:31:32;15.30;99.90
4314;DHT22;2170;48.794;9.182;2023-08-08T05:34:09;15.30;99.90
4314;DHT22;2170;48.794;9.182;2023-08-08T05:36:51;15.40;99.90
4314;DHT22;2170;48.794;9.182;2023-08-08T05:39:44;15.50;99.90
4314;DHT22;2170;48.794;9.182;2023-08-08T05:42:20;15.60;99.90
4314;DHT22;2170;48.794;9.182;2023-08-08T05:45:14;15.60;99.90
4314;DHT22;2170;48.794;9.182;2023-08-08T05:47:59;15.80;99.90
4314;DHT22;2170;48.794;9.182;2023-08-08T05:50:40;15.80;99.90
4314;DHT22;2170;48.794;9.182;2023-08-08T05:53:13;15.90;99.90
4314;DHT22;2170;48.794;9.182;2023-08-08T05:55:43;16.00;99.90
4314;DHT22;2170;48.794;9.182;2023-08-08T05:58:14;16.00;99.90
4314;DHT22;2170;48.794;9.182;2023-08-08T06:00:56;16.20;99.90
4314;DHT22;2170;48.794;9.182;2023-08-08T06:03:25;16.20;99.90
4314;DHT22;2170;48.794;9.182;2023-08-08T06:05:54;16.30;99.90
4314;DHT22;2170;48.794;9.182;2023-08-08T06:08:22;16.30;99.90
4314;DHT22;2170;48.794;9.182;2023-08-08T06:10:57;16.60;99.90
4314;DHT22;2170;48.794;9.182;2023-08-08T06:13:24;16.60;99.90
4314;DHT22;2170;48.794;9.182;2023-08-08T06:15:52;16.70;99.90
4314;DHT22;2170;48.794;9.182;2023-08-08T06:18:24;16.80;99.90
4314;DHT22;2170;48.794;9.182;2023-08-08T06:20:59;16.80;99.90
4314;DHT22;2170;48.794;9.182;2023-08-08T06:23:32;16.90;99.90
4314;DHT22;2170;48.794;9.182;2023-08-08T06:26:06;17.00;99.90
4314;DHT22;2170;48.794;9.182;2023-08-08T06:28:51;17.10;99.90
4314;DHT22;2170;48.794;9.182;2023-08-08T06:31:30;17.10;99.90
4314;DHT22;2170;48.794;9.182;2023-08-08T06:34:00;17.20;99.90
4314;DHT22;2170;48.794;9.182;2023-08-08T06:36:43;17.30;99.90
4314;DHT22;2170;48.794;9.182;2023-08-08T06:39:15;17.40;99.90
4314;DHT22;2170;48.794;9.182;2023-08-08T06:41:49;17.50;99.90
4314;DHT22;2170;48.794;9.182;2023-08-08T06:44:18;17.60;99.90
4314;DHT22;2170;48.794;9.182;2023-08-08T06:47:02;17.70;99.90
4314;DHT22;2170;48.794;9.182;2023-08-08T06:52:41;17.70;99.90
4314;DHT22;2170;48.794;9.182;2023-08-08T06:55:27;17.80;99.90
4314;DHT22;2170;48.794;9.182;2023-08-08T06:58:07;17.80;99.90
4314;DHT22;2170;48.794;9.182;2023-08-08T07:00:39;17.80;99.90
4314;DHT22;2170;48.794;9.182;2023-08-08T07:03:11;17.80;99.90
4314;DHT22;2170;48.794;9.182;2023-08-08T07:05:46;17.80;99.90
4314;DHT22;2170;48.794;9.182;2023-08-08T07:08:35;18.00;99.90
4314;DHT22;2170;48.794;9.182;2023-08-08T07:11:13;18.10;99.90
4314;DHT22;2170;48.794;9.182;2023-08-08T07:13:53;18.20;99.90
4314;DHT22;2170;48.794;9.182;2023-08-08T07:16:31;18.40;99.90
4314;DHT22;2170;48.794;9.182;2023-08-08T07:19:19;18.40;99.90
4314;DHT22;2170;48.794;9.182;2023-08-08T07:22:02;18.50;99.90
4314;DHT22;2170;48.794;9.182;2023-08-08T07:24:41;18.40;99.90
4314;DHT22;2170;48.794;9.182;2023-08-08T07:27:17;18.20;99.90
4314;DHT22;2170;48.794;9.182;2023-08-08T07:29:46;18.30;99.90
4314;DHT22;2170;48.794;9.182;2023-08-08T07:32:23;18.60;99.90
4314;DHT22;2170;48.794;9.182;2023-08-08T07:34:54;18.60;99.90
4314;DHT22;2170;48.794;9.182;2023-08-08T07:37:24;18.70;99.90
4314;DHT22;2170;48.794;9.182;2023-08-08T07:39:51;18.70;99.90
4314;DHT22;2170;48.794;9.182;2023-08-08T07:42:37;18.80;99.90
4314;DHT22;2170;48.794;9.182;2023-08-08T07:45:14;18.90;99.90
4314;DHT22;2170;48.794;9.182;2023-08-08T07:47:48;18.80;99.90
4314;DHT22;2170;48.794;9.182;2023-08-08T07:50:26;19.00;99.90
4314;DHT22;2170;48.794;9.182;2023-08-08T07:53:00;19.00;99.90
4314;DHT22;2170;48.794;9.182;2023-08-08T07:55:35;19.10;99.90
4314;DHT22;2170;48.794;9.182;2023-08-08T07:58:09;19.00;99.90
4314;DHT22;2170;48.794;9.182;2023-08-08T08:00:38;18.90;99.90
4314;DHT22;2170;48.794;9.182;2023-08-08T08:03:13;19.00;99.90
4314;DHT22;2170;48.794;9.182;2023-08-08T08:05:46;18.90;99.90
4314;DHT22;2170;48.794;9.182;2023-08-08T08:08:21;18.90;99.90
4314;DHT22;2170;48.794;9.182;2023-08-08T08:10:50;19.10;99.90
4314;DHT22;2170;48.794;9.182;2023-08-08T08:13:17;19.00;99.90
4314;DHT22;2170;48.794;9.182;2023-08-08T08:15:45;19.10;99.90
4314;DHT22;2170;48.794;9.182;2023-08-08T08:18:18;19.10;99.90
4314;DHT22;2170;48.794;9.182;2023-08-08T08:20:52;19.10;99.90
4314;DHT22;2170;48.794;9.182;2023-08-08T08:23:27;19.10;99.90
4314;DHT22;2170;48.794;9.182;2023-08-08T08:25:58;19.20;99.90
4314;DHT22;2170;48.794;9.182;2023-08-08T08:28:28;19.30;99.90
4314;DHT22;2170;48.794;9.182;2023-08-08T08:30:55;19.40;99.90
4314;DHT22;2170;48.794;9.182;2023-08-08T08:33:28;19.20;99.90
4314;DHT22;2170;48.794;9.182;2023-08-08T08:35:56;19.30;99.90
4314;DHT22;2170;48.794;9.182;2023-08-08T08:38:33;19.40;99.90
4314;DHT22;2170;48.794;9.182;2023-08-08T08:41:04;19.20;99.90
4314;DHT22;2170;48.794;9.182;2023-08-08T08:43:38;19.50;99.90
4314;DHT22;2170;48.794;9.182;2023-08-08T08:46:07;19.60;99.90
4314;DHT22;2170;48.794;9.182;2023-08-08T08:48:36;19.60;99.90
4314;DHT22;2170;48.794;9.182;2023-08-08T08:51:04;19.80;99.90
4314;DHT22;2170;48.794;9.182;2023-08-08T08:53:34;19.80;99.90
4314;DHT22;2170;48.794;9.182;2023-08-08T08:56:05;19.90;99.90
4314;DHT22;2170;48.794;9.182;2023-08-08T08:58:34;19.70;99.90
4314;DHT22;2170;48.794;9.182;2023-08-08T09:01:02;19.70;99.90
4314;DHT22;2170;48.794;9.182;2023-08-08T09:03:29;19.80;99.90
4314;DHT22;2170;48.794;9.182;2023-08-08T09:05:58;20.20;99.90
4314;DHT22;2170;48.794;9.182;2023-08-08T09:08:27;20.40;99.90
4314;DHT22;2170;48.794;9.182;2023-08-08T09:11:02;20.50;99.90
4314;DHT22;2170;48.794;9.182;2023-08-08T09:13:36;20.70;99.90
4314;DHT22;2170;48.794;9.182;2023-08-08T09:16:05;21.10;99.90
4314;DHT22;2170;48.794;9.182;2023-08-08T09:18:39;21.20;99.90
4314;DHT22;2170;48.794;9.182;2023-08-08T09:21:08;21.60;99.90
4314;DHT22;2170;48.794;9.182;2023-08-08T09:23:38;21.70;99.90
4314;DHT22;2170;48.794;9.182;2023-08-08T09:26:13;22.20;99.90
4314;DHT22;2170;48.794;9.182;2023-08-08T09:28:42;22.20;99.90
4314;DHT22;2170;48.794;9.182;2023-08-08T09:31:14;21.70;99.90
4314;DHT22;2170;48.794;9.182;2023-08-08T09:33:43;21.40;99.90
4314;DHT22;2170;48.794;9.182;2023-08-08T09:36:14;21.40;99.90
4314;DHT22;2170;48.794;9.182;2023-08-08T09:38:42;21.40;99.90
4314;DHT22;2170;48.794;9.182;2023-08-08T09:41:16;21.60;99.90
4314;DHT22;2170;48.794;9.182;2023-08-08T09:43:48;22.10;99.90
4314;DHT22;2170;48.794;9.182;2023-08-08T09:46:22;22.30;99.90
4314;DHT22;2170;48.794;9.182;2023-08-08T09:49:08;22.10;99.90
4314;DHT22;2170;48.794;9.182;2023-08-08T09:51:38;21.90;99.90
4314;DHT22;2170;48.794;9.182;2023-08-08T09:54:14;22.00;99.90
4314;DHT22;2170;48.794;9.182;2023-08-08T09:56:43;21.90;99.90
4314;DHT22;2170;48.794;9.182;2023-08-08T09:59:12;21.70;99.90
4314;DHT22;2170;48.794;9.182;2023-08-08T10:01:41;21.80;99.90
4314;DHT22;2170;48.794;9.182;2023-08-08T10:04:12;21.70;99.90
4314;DHT22;2170;48.794;9.182;2023-08-08T10:06:43;22.00;99.90
4314;DHT22;2170;48.794;9.182;2023-08-08T10:09:15;21.80;99.90
4314;DHT22;2170;48.794;9.182;2023-08-08T10:11:49;21.90;99.90
4314;DHT22;2170;48.794;9.182;2023-08-08T10:14:29;22.30;99.90
4314;DHT22;2170;48.794;9.182;2023-08-08T10:17:08;22.30;99.90
4314;DHT22;2170;48.794;9.182;2023-08-08T10:19:54;22.70;99.90
4314;DHT22;2170;48.794;9.182;2023-08-08T10:22:24;22.60;99.90
4314;DHT22;2170;48.794;9.182;2023-08-08T10:24:53;22.60;99.90
4314;DHT22;2170;48.794;9.182;2023-08-08T10:27:34;22.50;99.90
4314;DHT22;2170;48.794;9.182;2023-08-08T10:30:11;22.30;99.90
4314;DHT22;2170;48.794;9.182;2023-08-08T10:32:56;22.40;99.90
4314;DHT22;2170;48.794;9.182;2023-08-08T10:35:36;22.60;99.90
4314;DHT22;2170;48.794;9.182;2023-08-08T10:38:14;22.60;99.90
4314;DHT22;2170;48.794;9.182;2023-08-08T10:40:48;22.60;99.90
4314;DHT22;2170;48.794;9.182;2023-08-08T10:43:51;22.60;99.90
4314;DHT22;2170;48.794;9.182;2023-08-08T10:46:34;22.80;99.90
4314;DHT22;2170;48.794;9.182;2023-08-08T10:49:15;23.00;99.90
4314;DHT22;2170;48.794;9.182;2023-08-08T10:52:07;23.40;99.90
4314;DHT22;2170;48.794;9.182;2023-08-08T10:54:51;23.40;99.90
4314;DHT22;2170;48.794;9.182;2023-08-08T10:57:25;23.30;99.90
4314;DHT22;2170;48.794;9.182;2023-08-08T11:00:18;22.90;99.90
4314;DHT22;2170;48.794;9.182;2023-08-08T11:02:55;22.80;99.90
4314;DHT22;2170;48.794;9.182;2023-08-08T11:05:45;23.20;99.90
4314;DHT22;2170;48.794;9.182;2023-08-08T11:08:28;23.00;99.90
4314;DHT22;2170;48.794;9.182;2023-08-08T11:10:58;23.40;99.90
4314;DHT22;2170;48.794;9.182;2023-08-08T11:13:28;23.80;99.90
4314;DHT22;2170;48.794;9.182;2023-08-08T11:16:02;24.10;99.90
4314;DHT22;2170;48.794;9.182;2023-08-08T11:18:30;23.30;99.10
4314;DHT22;2170;48.794;9.182;2023-08-08T11:21:12;23.30;99.90
4314;DHT22;2170;48.794;9.182;2023-08-08T11:23:46;23.10;99.90
4314;DHT22;2170;48.794;9.182;2023-08-08T11:26:18;22.90;99.90
4314;DHT22;2170;48.794;9.182;2023-08-08T11:28:52;22.90;99.90
4314;DHT22;2170;48.794;9.182;2023-08-08T11:31:24;22.70;99.90
4314;DHT22;2170;48.794;9.182;2023-08-08T11:33:56;22.90;98.00
4314;DHT22;2170;48.794;9.182;2023-08-08T11:36:24;23.40;97.20
4314;DHT22;2170;48.794;9.182;2023-08-08T11:38:51;23.50;98.00
4314;DHT22;2170;48.794;9.182;2023-08-08T11:41:22;23.90;97.80
4314;DHT22;2170;48.794;9.182;2023-08-08T11:43:53;24.40;96.40
4314;DHT22;2170;48.794;9.182;2023-08-08T11:46:26;24.20;95.00
4314;DHT22;2170;48.794;9.182;2023-08-08T11:49:05;23.70;95.50
4314;DHT22;2170;48.794;9.182;2023-08-08T11:51:33;23.50;96.80
4314;DHT22;2170;48.794;9.182;2023-08-08T11:54:05;24.00;97.00
4314;DHT22;2170;48.794;9.182;2023-08-08T11:56:36;24.10;97.60
4314;DHT22;2170;48.794;9.182;2023-08-08T11:59:05;24.10;96.80
4314;DHT22;2170;48.794;9.182;2023-08-08T12:01:35;24.10;96.20
4314;DHT22;2170;48.794;9.182;2023-08-08T12:04:10;24.50;96.20
4314;DHT22;2170;48.794;9.182;2023-08-08T12:06:43;24.50;97.70
4314;DHT22;2170;48.794;9.182;2023-08-08T12:09:16;24.90;97.00
4314;DHT22;2170;48.794;9.182;2023-08-08T12:11:46;24.90;95.80
4314;DHT22;2170;48.794;9.182;2023-08-08T12:14:18;24.80;95.50
4314;DHT22;2170;48.794;9.182;2023-08-08T12:16:55;25.00;95.00
4314;DHT22;2170;48.794;9.182;2023-08-08T12:19:28;25.00;95.10
4314;DHT22;2170;48.794;9.182;2023-08-08T12:21:56;25.20;94.70
4314;DHT22;2170;48.794;9.182;2023-08-08T12:24:27;25.10;93.90
4314;DHT22;2170;48.794;9.182;2023-08-08T12:26:58;25.10;92.60
4314;DHT22;2170;48.794;9.182;2023-08-08T12:29:37;25.30;93.10
4314;DHT22;2170;48.794;9.182;2023-08-08T12:32:07;25.50;92.10
4314;DHT22;2170;48.794;9.182;2023-08-08T12:34:40;24.90;91.60
4314;DHT22;2170;48.794;9.182;2023-08-08T12:37:10;24.90;92.30
4314;DHT22;2170;48.794;9.182;2023-08-08T12:39:40;24.80;92.90
4314;DHT22;2170;48.794;9.182;2023-08-08T12:42:07;24.40;93.80
4314;DHT22;2170;48.794;9.182;2023-08-08T12:44:35;24.00;94.30
4314;DHT22;2170;48.794;9.182;2023-08-08T12:47:07;24.10;95.10
4314;DHT22;2170;48.794;9.182;2023-08-08T12:49:39;24.30;95.40
4314;DHT22;2170;48.794;9.182;2023-08-08T12:52:15;24.60;95.60
4314;DHT22;2170;48.794;9.182;2023-08-08T12:54:49;24.30;94.30
4314;DHT22;2170;48.794;9.182;2023-08-08T12:57:22;24.20;94.80
4314;DHT22;2170;48.794;9.182;2023-08-08T12:59:58;24.30;93.50
4314;DHT22;2170;48.794;9.182;2023-08-08T13:02:47;24.30;93.90
4314;DHT22;2170;48.794;9.182;2023-08-08T13:08:07;25.10;93.30
4314;DHT22;2170;48.794;9.182;2023-08-08T13:10:37;24.70;93.70
4314;DHT22;2170;48.794;9.182;2023-08-08T13:13:08;24.40;94.10
4314;DHT22;2170;48.794;9.182;2023-08-08T13:15:37;23.90;95.00
4314;DHT22;2170;48.794;9.182;2023-08-08T13:18:11;24.70;94.30
4314;DHT22;2170;48.794;9.182;2023-08-08T13:20:42;24.50;94.20
4314;DHT22;2170;48.794;9.182;2023-08-08T13:23:09;24.60;95.20
4314;DHT22;2170;48.794;9.182;2023-08-08T13:26:09;24.40;96.00
4314;DHT22;2170;48.794;9.182;2023-08-08T13:28:40;23.90;97.00
4314;DHT22;2170;48.794;9.182;2023-08-08T13:31:11;23.60;97.80
4314;DHT22;2170;48.794;9.182;2023-08-08T13:33:42;24.10;98.60
4314;DHT22;2170;48.794;9.182;2023-08-08T13:36:12;24.70;98.40
4314;DHT22;2170;48.794;9.182;2023-08-08T13:38:40;25.20;98.30
4314;DHT22;2170;48.794;9.182;2023-08-08T13:41:09;25.00;97.70
4314;DHT22;2170;48.794;9.182;2023-08-08T13:43:40;24.60;96.00
4314;DHT22;2170;48.794;9.182;2023-08-08T13:46:08;24.50;96.10
4314;DHT22;2170;48.794;9.182;2023-08-08T13:48:39;24.90;96.00
4314;DHT22;2170;48.794;9.182;2023-08-08T13:51:11;25.10;94.90
4314;DHT22;2170;48.794;9.182;2023-08-08T13:53:39;25.00;95.00
4314;DHT22;2170;48.794;9.182;2023-08-08T13:56:09;24.90;94.90
4314;DHT22;2170;48.794;9.182;2023-08-08T13:58:40;24.50;95.40
4314;DHT22;2170;48.794;9.182;2023-08-08T14:01:13;24.40;96.10
4314;DHT22;2170;48.794;9.182;2023-08-08T14:03:47;24.60;95.30
4314;DHT22;2170;48.794;9.182;2023-08-08T14:06:25;25.00;95.50
4314;DHT22;2170;48.794;9.182;2023-08-08T14:08:59;25.40;95.10
4314;DHT22;2170;48.794;9.182;2023-08-08T14:11:28;25.10;95.20
4314;DHT22;2170;48.794;9.182;2023-08-08T14:14:05;24.50;95.10
4314;DHT22;2170;48.794;9.182;2023-08-08T14:16:49;24.10;95.50
4314;DHT22;2170;48.794;9.182;2023-08-08T14:19:21;24.10;95.70
4314;DHT22;2170;48.794;9.182;2023-08-08T14:21:50;23.80;96.10
4314;DHT22;2170;48.794;9.182;2023-08-08T14:24:21;23.70;96.60
4314;DHT22;2170;48.794;9.182;2023-08-08T14:26:53;23.90;97.30
4314;DHT22;2170;48.794;9.182;2023-08-08T14:29:21;23.60;97.40
4314;DHT22;2170;48.794;9.182;2023-08-08T14:31:49;23.50;97.80
4314;DHT22;2170;48.794;9.182;2023-08-08T14:34:27;23.50;97.70
4314;DHT22;2170;48.794;9.182;2023-08-08T14:36:57;23.40;97.60
4314;DHT22;2170;48.794;9.182;2023-08-08T14:39:32;23.60;97.60
4314;DHT22;2170;48.794;9.182;2023-08-08T14:42:00;23.60;97.20
4314;DHT22;2170;48.794;9.182;2023-08-08T14:44:28;23.30;97.80
4314;DHT22;2170;48.794;9.182;2023-08-08T14:46:56;23.40;98.10
4314;DHT22;2170;48.794;9.182;2023-08-08T14:49:24;23.10;98.20
4314;DHT22;2170;48.794;9.182;2023-08-08T14:51:56;23.00;98.40
4314;DHT22;2170;48.794;9.182;2023-08-08T14:54:26;22.90;98.70
4314;DHT22;2170;48.794;9.182;2023-08-08T14:56:57;22.90;98.90
4314;DHT22;2170;48.794;9.182;2023-08-08T14:59:26;22.90;98.90
4314;DHT22;2170;48.794;9.182;2023-08-08T15:01:55;22.70;99.30
4314;DHT22;2170;48.794;9.182;2023-08-08T15:04:22;22.60;99.80
4314;DHT22;2170;48.794;9.182;2023-08-08T15:07:01;22.60;99.70
4314;DHT22;2170;48.794;9.182;2023-08-08T15:09:28;22.40;99.90
4314;DHT22;2170;48.794;9.182;2023-08-08T15:11:56;22.60;99.90
4314;DHT22;2170;48.794;9.182;2023-08-08T15:14:24;22.40;99.90
4314;DHT22;2170;48.794;9.182;2023-08-08T15:16:54;22.20;99.90
4314;DHT22;2170;48.794;9.182;2023-08-08T15:19:27;22.10;99.90
4314;DHT22;2170;48.794;9.182;2023-08-08T15:21:55;22.10;99.90
4314;DHT22;2170;48.794;9.182;2023-08-08T15:24:26;22.10;99.90
4314;DHT22;2170;48.794;9.182;2023-08-08T15:26:57;22.40;99.90
4314;DHT22;2170;48.794;9.182;2023-08-08T15:29:24;22.50;99.90
4314;DHT22;2170;48.794;9.182;2023-08-08T15:31:52;22.30;99.90
4314;DHT22;2170;48.794;9.182;2023-08-08T15:34:19;22.70;99.90
4314;DHT22;2170;48.794;9.182;2023-08-08T15:36:46;22.80;99.90
4314;DHT22;2170;48.794;9.182;2023-08-08T15:39:14;23.00;99.90
4314;DHT22;2170;48.794;9.182;2023-08-08T15:41:43;23.00;99.90
4314;DHT22;2170;48.794;9.182;2023-08-08T15:44:15;22.70;99.90
4314;DHT22;2170;48.794;9.182;2023-08-08T15:46:46;22.40;99.90
4314;DHT22;2170;48.794;9.182;2023-08-08T15:49:14;22.20;99.90
4314;DHT22;2170;48.794;9.182;2023-08-08T15:51:42;22.20;99.90
4314;DHT22;2170;48.794;9.182;2023-08-08T15:54:10;22.00;99.90
4314;DHT22;2170;48.794;9.182;2023-08-08T15:56:37;21.90;99.90
4314;DHT22;2170;48.794;9.182;2023-08-08T15:59:06;21.70;99.90
4314;DHT22;2170;48.794;9.182;2023-08-08T16:01:33;21.60;99.90
4314;DHT22;2170;48.794;9.182;2023-08-08T16:04:02;21.70;99.90
4314;DHT22;2170;48.794;9.182;2023-08-08T16:06:29;22.00;99.90
4314;DHT22;2170;48.794;9.182;2023-08-08T16:08:57;21.80;99.90
4314;DHT22;2170;48.794;9.182;2023-08-08T16:11:28;21.90;99.90
4314;DHT22;2170;48.794;9.182;2023-08-08T16:13:59;22.10;99.90
4314;DHT22;2170;48.794;9.182;2023-08-08T16:16:33;22.10;99.90
4314;DHT22;2170;48.794;9.182;2023-08-08T16:19:01;22.20;99.90
4314;DHT22;2170;48.794;9.182;2023-08-08T16:21:28;22.30;99.90
4314;DHT22;2170;48.794;9.182;2023-08-08T16:23:58;22.10;99.90
4314;DHT22;2170;48.794;9.182;2023-08-08T16:26:25;22.20;99.90
4314;DHT22;2170;48.794;9.182;2023-08-08T16:28:53;22.20;99.90
4314;DHT22;2170;48.794;9.182;2023-08-08T16:31:23;22.50;99.90
4314;DHT22;2170;48.794;9.182;2023-08-08T16:33:58;22.70;99.90
4314;DHT22;2170;48.794;9.182;2023-08-08T16:36:27;22.40;99.90
4314;DHT22;2170;48.794;9.182;2023-08-08T16:39:04;22.30;99.90
4314;DHT22;2170;48.794;9.182;2023-08-08T16:41:36;22.10;99.90
4314;DHT22;2170;48.794;9.182;2023-08-08T16:44:05;21.90;99.90
4314;DHT22;2170;48.794;9.182;2023-08-08T16:46:33;21.90;99.90
4314;DHT22;2170;48.794;9.182;2023-08-08T16:49:03;21.90;99.90
4314;DHT22;2170;48.794;9.182;2023-08-08T16:51:34;22.10;99.90
4314;DHT22;2170;48.794;9.182;2023-08-08T16:54:09;22.00;99.90
4314;DHT22;2170;48.794;9.182;2023-08-08T16:56:37;22.20;99.90
4314;DHT22;2170;48.794;9.182;2023-08-08T16:59:05;22.30;99.90
4314;DHT22;2170;48.794;9.182;2023-08-08T17:01:35;22.40;99.90
4314;DHT22;2170;48.794;9.182;2023-08-08T17:04:09;22.30;99.90
4314;DHT22;2170;48.794;9.182;2023-08-08T17:06:49;22.30;99.90